Time;durP1;ratioP1;P1;durP2;ratioP2;P2;SDS_P1;SDS_P2;PMS_P1;PMS_P2;Temp;Humidity;BMP_temperature;BMP_pressure;BME280_temperature;BME280_humidity;BME280_pressure;Samples;Min_cycle;Max_cycle;Signal;HPM_P1;HPM_P2
2022/06/26 00:00:00;;;;;;;1.00;1.00;;;;;19.50;97995.00;;;;5134978;27;20248;-75
2022/06/26 00:02:27;;;;;;;0.60;0.60;;;;;19.50;97998.00;;;;5134949;28;20228;-73
2022/06/26 00:04:54;;;;;;;2.37;1.03;;;;;19.50;98005.00;;;;5135094;28;20189;-75
2022/06/26 00:07:21;;;;;;;0.63;0.63;;;;;19.40;98009.00;;;;5134988;28;20632;-75
2022/06/26 00:09:48;;;;;;;0.77;0.77;;;;;19.40;98004.00;;;;5134965;28;20200;-75
2022/06/26 00:12:15;;;;;;;0.50;0.50;;;;;19.50;98006.00;;;;5134802;28;20225;-75
2022/06/26 00:14:41;;;;;;;0.57;0.57;;;;;19.40;98008.00;;;;5134877;28;20196;-75
2022/06/26 00:17:08;;;;;;;0.50;0.50;;;;;19.50;98017.00;;;;5134718;28;20229;-75
2022/06/26 00:19:35;;;;;;;0.50;0.50;;;;;19.40;98022.00;;;;5134771;28;20248;-75
2022/06/26 00:22:06;;;;;;;0.80;0.80;;;;;19.50;98025.00;;;;5134439;28;20682;-75
2022/06/26 00:24:34;;;;;;;0.70;0.70;;;;;19.40;98030.00;;;;5134710;27;20180;-75
2022/06/26 00:27:02;;;;;;;6.60;1.07;;;;;19.50;98038.00;;;;5134482;27;20643;-75
2022/06/26 00:29:32;;;;;;;0.87;0.87;;;;;19.50;98056.00;;;;5134497;28;20674;-75
2022/06/26 00:31:59;;;;;;;0.80;0.80;;;;;19.50;98091.00;;;;5134562;27;20205;-75
2022/06/26 00:34:25;;;;;;;0.50;0.50;;;;;19.50;98093.00;;;;5134479;28;20221;-75
2022/06/26 00:36:52;;;;;;;1.30;1.20;;;;;19.30;98093.00;;;;5134595;28;20193;-74
2022/06/26 00:39:21;;;;;;;2.13;1.20;;;;;19.30;98094.00;;;;5134592;28;20255;-75
2022/06/26 00:41:51;;;;;;;0.53;0.53;;;;;19.20;98089.00;;;;5134384;28;20209;-75
2022/06/26 00:44:20;;;;;;;0.97;0.97;;;;;19.30;98090.00;;;;5134492;28;20224;-75
2022/06/26 00:46:51;;;;;;;0.67;0.67;;;;;19.40;98089.00;;;;5134360;27;20584;-74
2022/06/26 00:49:19;;;;;;;0.60;0.60;;;;;19.40;98083.00;;;;5134390;28;20198;-76
2022/06/26 00:51:49;;;;;;;8.13;1.10;;;;;19.50;98088.00;;;;5134588;28;20281;-75
2022/06/26 00:54:17;;;;;;;0.80;0.80;;;;;19.50;98097.00;;;;5120157;28;20197;-75
2022/06/26 00:56:44;;;;;;;0.50;0.50;;;;;19.60;98103.00;;;;5121422;28;20228;-75
2022/06/26 00:59:13;;;;;;;0.40;0.40;;;;;19.70;98112.00;;;;5135263;27;20201;-75
2022/06/26 01:01:42;;;;;;;0.50;0.50;;;;;19.70;98102.00;;;;5134074;28;20235;-75
2022/06/26 01:04:09;;;;;;;0.40;0.40;;;;;19.70;98104.00;;;;5116226;28;20198;-74
2022/06/26 01:06:36;;;;;;;0.50;0.50;;;;;19.80;98108.00;;;;5134192;27;20257;-75
2022/06/26 01:09:04;;;;;;;0.50;0.50;;;;;19.80;98103.00;;;;5134061;28;20189;-75
2022/06/26 01:11:31;;;;;;;0.40;0.40;;;;;19.90;98100.00;;;;5115997;28;20532;-75
2022/06/26 01:13:58;;;;;;;0.43;0.43;;;;;20.00;98103.00;;;;5134042;28;20213;-75
2022/06/26 01:16:28;;;;;;;0.50;0.50;;;;;20.00;98097.00;;;;5115988;28;20650;-73
2022/06/26 01:18:56;;;;;;;0.63;0.60;;;;;20.00;98094.00;;;;5133937;27;20217;-75
2022/06/26 01:21:25;;;;;;;0.90;0.90;;;;;20.10;98093.00;;;;5134007;28;20208;-74
2022/06/26 01:23:54;;;;;;;0.40;0.40;;;;;20.20;98073.00;;;;5133904;28;20225;-74
2022/06/26 01:26:22;;;;;;;0.80;0.80;;;;;20.20;98083.00;;;;5116061;28;20193;-75
2022/06/26 01:28:49;;;;;;;0.50;0.50;;;;;20.30;98068.00;;;;5133926;28;20201;-73
2022/06/26 01:31:17;;;;;;;0.40;0.40;;;;;20.30;98067.00;;;;5133867;28;20595;-74
2022/06/26 01:33:44;;;;;;;0.87;0.77;;;;;20.30;98062.00;;;;5134157;27;20512;-74
2022/06/26 01:36:13;;;;;;;0.40;0.40;;;;;20.30;98061.00;;;;5134126;28;20529;-75
2022/06/26 01:38:40;;;;;;;0.60;0.60;;;;;20.30;98078.00;;;;5134354;27;20199;-75
2022/06/26 01:41:07;;;;;;;0.60;0.60;;;;;20.30;98078.00;;;;5137261;27;20224;-75
2022/06/26 01:43:37;;;;;;;0.40;0.40;;;;;20.20;98087.00;;;;5137320;27;20229;-75
2022/06/26 01:46:05;;;;;;;0.93;0.80;;;;;20.20;98097.00;;;;5137228;28;20204;-75
2022/06/26 01:48:34;;;;;;;0.50;0.50;;;;;20.30;98095.00;;;;5137127;28;20266;-73
2022/06/26 01:51:04;;;;;;;0.60;0.60;;;;;20.30;98102.00;;;;5137223;28;20190;-75
2022/06/26 01:53:32;;;;;;;0.77;0.77;;;;;20.30;98108.00;;;;5137145;27;20221;-75
2022/06/26 01:55:59;;;;;;;0.50;0.50;;;;;20.20;98099.00;;;;5137059;28;20208;-75
2022/06/26 01:58:26;;;;;;;0.50;0.50;;;;;20.20;98092.00;;;;5136968;28;20213;-75
2022/06/26 02:00:54;;;;;;;0.85;0.85;;;;;20.20;98091.00;;;;5119049;28;20205;-75
2022/06/26 02:03:21;;;;;;;0.70;0.70;;;;;20.20;98092.00;;;;5136802;28;20228;-74
2022/06/26 02:05:49;;;;;;;0.40;0.40;;;;;20.20;98095.00;;;;5137200;27;20282;-74
2022/06/26 02:08:17;;;;;;;0.53;0.53;;;;;20.20;98085.00;;;;5137181;28;20221;-75
2022/06/26 02:13:40;;;;;;;0.40;0.40;;;;;20.30;98088.00;;;;5136846;28;20636;-75
2022/06/26 02:16:10;;;;;;;0.70;0.70;;;;;20.30;98086.00;;;;5136745;28;20220;-74
2022/06/26 02:18:37;;;;;;;0.60;0.60;;;;;20.20;98096.00;;;;5118669;28;20193;-75
2022/06/26 02:21:06;;;;;;;0.40;0.40;;;;;20.10;98093.00;;;;5118689;28;20225;-75
2022/06/26 02:23:36;;;;;;;0.40;0.40;;;;;20.30;98099.00;;;;5136666;27;20213;-75
2022/06/26 02:26:04;;;;;;;0.40;0.40;;;;;20.20;98097.00;;;;5136623;28;20214;-75
2022/06/26 02:28:31;;;;;;;0.40;0.40;;;;;20.10;98102.00;;;;5136585;27;20193;-74
2022/06/26 02:30:58;;;;;;;0.40;0.40;;;;;20.00;98109.00;;;;5136575;28;20202;-75
2022/06/26 02:33:25;;;;;;;0.47;0.47;;;;;20.00;98116.00;;;;5136699;27;20193;-74
2022/06/26 02:35:54;;;;;;;0.40;0.40;;;;;19.90;98109.00;;;;5136573;28;20586;-74
2022/06/26 02:38:24;;;;;;;0.77;0.60;;;;;19.90;98116.00;;;;5136283;28;20353;-75
2022/06/26 02:40:54;;;;;;;0.70;0.70;;;;;19.80;98113.00;;;;5136314;28;20632;-75
2022/06/26 02:43:23;;;;;;;0.40;0.40;;;;;19.80;98112.00;;;;5136199;27;20229;-75
2022/06/26 02:45:51;;;;;;;0.87;0.87;;;;;19.70;98108.00;;;;5136361;28;20236;-74
2022/06/26 02:48:18;;;;;;;0.50;0.50;;;;;19.70;98112.00;;;;5136134;27;20217;-76
2022/06/26 02:50:44;;;;;;;0.93;0.93;;;;;19.70;98113.00;;;;5136339;27;20181;-75
2022/06/26 02:53:11;;;;;;;0.50;0.50;;;;;19.70;98112.00;;;;5118692;28;20212;-75
2022/06/26 02:55:38;;;;;;;0.63;0.63;;;;;19.70;98114.00;;;;5136382;28;20193;-75
2022/06/26 02:58:05;;;;;;;0.40;0.40;;;;;19.70;98115.00;;;;5136191;28;20273;-76
2022/06/26 03:00:32;;;;;;;0.60;0.60;;;;;19.50;98105.00;;;;5136027;28;20612;-73
2022/06/26 03:03:02;;;;;;;1.37;1.27;;;;;19.50;98116.00;;;;5135907;27;20231;-73
2022/06/26 03:05:29;;;;;;;0.70;0.70;;;;;19.50;98106.00;;;;5135907;27;20213;-75
2022/06/26 03:07:56;;;;;;;0.50;0.50;;;;;19.40;98104.00;;;;5135900;27;20201;-75
2022/06/26 03:10:23;;;;;;;1.00;0.73;;;;;19.40;98104.00;;;;5135889;28;20189;-75
2022/06/26 03:12:50;;;;;;;0.50;0.50;;;;;19.30;98103.00;;;;5135946;27;20198;-75
2022/06/26 03:15:18;;;;;;;0.73;0.73;;;;;19.30;98097.00;;;;5135750;27;20190;-75
2022/06/26 03:17:46;;;;;;;0.73;0.73;;;;;19.30;98095.00;;;;5135711;27;20197;-75
2022/06/26 03:20:16;;;;;;;0.40;0.40;;;;;19.30;98101.00;;;;5135716;27;20203;-75
2022/06/26 03:22:46;;;;;;;0.50;0.50;;;;;19.40;98098.00;;;;5135567;27;20229;-74
2022/06/26 03:25:13;;;;;;;0.50;0.50;;;;;19.40;98089.00;;;;5135674;28;20219;-75
2022/06/26 03:27:39;;;;;;;0.63;0.63;;;;;19.20;98087.00;;;;5135447;28;20217;-75
2022/06/26 03:30:09;;;;;;;0.80;0.80;;;;;19.30;98081.00;;;;5135651;28;20197;-75
2022/06/26 03:32:38;;;;;;;0.30;0.30;;;;;19.30;98075.00;;;;5135596;27;20262;-75
2022/06/26 03:35:06;;;;;;;0.40;0.40;;;;;19.30;98065.00;;;;5117423;28;20211;-75
2022/06/26 03:37:34;;;;;;;0.33;0.33;;;;;19.10;98060.00;;;;5135382;28;20278;-76
2022/06/26 03:40:01;;;;;;;0.40;0.40;;;;;19.00;98072.00;;;;5135407;28;20221;-76
2022/06/26 03:42:30;;;;;;;0.40;0.40;;;;;19.00;98096.00;;;;5117407;27;20680;-75
2022/06/26 03:44:57;;;;;;;0.50;0.50;;;;;18.90;98104.00;;;;5135256;28;20221;-75
2022/06/26 03:47:24;;;;;;;1.20;1.17;;;;;19.00;98109.00;;;;5135291;28;20193;-76
2022/06/26 03:49:53;;;;;;;0.40;0.40;;;;;19.00;98113.00;;;;5135173;27;20190;-75
2022/06/26 03:52:20;;;;;;;0.50;0.50;;;;;18.80;98108.00;;;;5135372;27;20206;-76
2022/06/26 03:54:48;;;;;;;0.70;0.70;;;;;18.70;98110.00;;;;5135275;28;20203;-75
2022/06/26 03:57:15;;;;;;;0.70;0.70;;;;;18.80;98114.00;;;;5135169;27;20185;-75
2022/06/26 03:59:43;;;;;;;0.30;0.30;;;;;18.80;98116.00;;;;5135059;27;20201;-76
2022/06/26 04:02:09;;;;;;;0.47;0.47;;;;;18.90;98114.00;;;;5134384;27;20226;-75
2022/06/26 04:04:36;;;;;;;0.70;0.70;;;;;18.90;98112.00;;;;5135151;27;20197;-75
2022/06/26 04:07:06;;;;;;;0.70;0.70;;;;;19.00;98112.00;;;;5134784;28;20678;-74
2022/06/26 04:09:35;;;;;;;0.60;0.60;;;;;18.90;98102.00;;;;5134893;28;20201;-76
2022/06/26 04:12:03;;;;;;;0.50;0.50;;;;;18.80;98111.00;;;;5134871;28;20197;-75
2022/06/26 04:14:29;;;;;;;0.50;0.50;;;;;18.90;98111.00;;;;5134998;27;20193;-76
2022/06/26 04:16:56;;;;;;;1.03;1.03;;;;;18.80;98113.00;;;;5134885;28;20193;-75
2022/06/26 04:19:23;;;;;;;0.67;0.67;;;;;18.90;98128.00;;;;5134672;28;20225;-75
2022/06/26 04:21:52;;;;;;;0.40;0.40;;;;;19.00;98115.00;;;;5116651;28;20655;-75
2022/06/26 04:24:19;;;;;;;0.47;0.47;;;;;18.90;98117.00;;;;5134637;28;20285;-75
2022/06/26 04:26:45;;;;;;;0.60;0.60;;;;;18.90;98115.00;;;;5134746;27;20217;-75
2022/06/26 04:29:13;;;;;;;0.67;0.67;;;;;18.90;98126.00;;;;5134576;28;20272;-75
2022/06/26 04:31:40;;;;;;;0.40;0.40;;;;;18.90;98119.00;;;;5134738;27;20193;-74
2022/06/26 04:34:07;;;;;;;0.63;0.63;;;;;18.90;98115.00;;;;5134598;28;20208;-76
2022/06/26 04:36:34;;;;;;;0.60;0.60;;;;;18.90;98111.00;;;;5116581;27;20210;-73
2022/06/26 04:39:00;;;;;;;0.83;0.83;;;;;19.00;98108.00;;;;5134694;28;20203;-76
2022/06/26 04:41:35;;;;;;;2.83;0.80;;;;;19.00;98096.00;;;;5134514;28;20223;-76
2022/06/26 04:44:03;;;;;;;1.40;0.60;;;;;18.80;98104.00;;;;5134512;28;20217;-75
2022/06/26 04:46:31;;;;;;;0.60;0.60;;;;;18.80;98095.00;;;;5134430;28;20213;-76
2022/06/26 04:48:58;;;;;;;0.53;0.53;;;;;18.90;98101.00;;;;5116387;28;20685;-76
2022/06/26 04:51:25;;;;;;;0.57;0.57;;;;;18.90;98096.00;;;;5134446;28;20274;-75
2022/06/26 04:53:54;;;;;;;0.50;0.50;;;;;18.90;98084.00;;;;5134380;27;20193;-75
2022/06/26 04:56:21;;;;;;;0.70;0.70;;;;;18.80;98092.00;;;;5134369;27;20704;-75
2022/06/26 04:58:48;;;;;;;1.33;0.67;;;;;18.90;98101.00;;;;5134304;27;20189;-75
2022/06/26 05:01:15;;;;;;;0.43;0.43;;;;;18.90;98106.00;;;;5134250;27;20200;-75
2022/06/26 05:03:43;;;;;;;0.50;0.50;;;;;19.00;98117.00;;;;5116043;28;20300;-75
2022/06/26 05:06:10;;;;;;;0.60;0.60;;;;;19.00;98126.00;;;;5134226;27;20197;-75
2022/06/26 05:08:37;;;;;;;0.40;0.40;;;;;19.00;98114.00;;;;5134099;28;20680;-75
2022/06/26 05:11:05;;;;;;;0.50;0.50;;;;;19.00;98101.00;;;;5134168;28;20185;-75
2022/06/26 05:13:32;;;;;;;0.60;0.60;;;;;19.20;98107.00;;;;5134196;27;20282;-75
2022/06/26 05:15:59;;;;;;;0.40;0.40;;;;;19.30;98122.00;;;;5137776;28;20185;-76
2022/06/26 05:18:26;;;;;;;0.67;0.67;;;;;19.30;98126.00;;;;5137674;27;20193;-75
2022/06/26 05:20:57;;;;;;;0.50;0.50;;;;;19.30;98130.00;;;;5137529;28;20248;-75
2022/06/26 05:23:26;;;;;;;0.40;0.40;;;;;19.30;98130.00;;;;5137687;28;20614;-76
2022/06/26 05:25:52;;;;;;;0.60;0.60;;;;;19.40;98127.00;;;;5137403;27;20225;-76
2022/06/26 05:28:19;;;;;;;0.50;0.50;;;;;19.20;98137.00;;;;5137496;28;20201;-76
2022/06/26 05:30:46;;;;;;;0.40;0.40;;;;;19.20;98139.00;;;;5137433;28;20253;-75
2022/06/26 05:33:13;;;;;;;0.50;0.50;;;;;19.20;98147.00;;;;5137486;27;20205;-74
2022/06/26 05:35:40;;;;;;;0.40;0.40;;;;;19.10;98142.00;;;;5137324;27;20633;-75
2022/06/26 05:38:10;;;;;;;1.33;1.23;;;;;18.90;98153.00;;;;5137332;27;20575;-76
2022/06/26 05:40:37;;;;;;;0.50;0.50;;;;;18.90;98153.00;;;;5137363;28;20636;-75
2022/06/26 05:43:03;;;;;;;0.53;0.53;;;;;19.00;98151.00;;;;5137210;27;20236;-75
2022/06/26 05:45:30;;;;;;;0.60;0.60;;;;;19.20;98153.00;;;;5137277;28;20228;-75
2022/06/26 05:47:57;;;;;;;0.60;0.60;;;;;19.20;98159.00;;;;5119073;28;20740;-75
2022/06/26 05:50:24;;;;;;;0.57;0.57;;;;;19.40;98156.00;;;;5119224;28;20300;-75
2022/06/26 05:52:51;;;;;;;0.77;0.57;;;;;19.10;98157.00;;;;5137099;27;20650;-75
2022/06/26 05:55:18;;;;;;;0.50;0.50;;;;;19.10;98162.00;;;;5137088;28;20197;-76
2022/06/26 05:57:45;;;;;;;0.43;0.43;;;;;19.00;98160.00;;;;5137140;27;20697;-75
2022/06/26 06:00:15;;;;;;;0.60;0.60;;;;;19.20;98176.00;;;;5136837;27;20678;-75
2022/06/26 06:02:42;;;;;;;0.57;0.57;;;;;19.00;98170.00;;;;5136903;27;20247;-75
2022/06/26 06:05:09;;;;;;;0.60;0.60;;;;;19.00;98169.00;;;;5136892;27;20281;-75
2022/06/26 06:07:37;;;;;;;0.60;0.60;;;;;19.20;98160.00;;;;5136893;28;20201;-75
2022/06/26 06:10:05;;;;;;;0.50;0.50;;;;;19.30;98157.00;;;;5136822;28;20621;-75
2022/06/26 06:12:35;;;;;;;0.63;0.63;;;;;19.30;98151.00;;;;5136850;28;20302;-75
2022/06/26 06:15:02;;;;;;;0.30;0.30;;;;;19.40;98149.00;;;;5136816;28;20193;-76
2022/06/26 06:17:40;;;;;;;0.40;0.40;;;;;19.50;98149.00;;;;5136801;28;20314;-75
2022/06/26 06:20:12;;;;;;;0.50;0.50;;;;;19.50;98149.00;;;;5136708;28;20176;-74
2022/06/26 06:22:42;;;;;;;0.43;0.43;;;;;19.60;98153.00;;;;5136512;27;20252;-76
2022/06/26 06:25:10;;;;;;;0.50;0.50;;;;;19.70;98159.00;;;;5136268;27;20192;-75
2022/06/26 06:27:39;;;;;;;0.43;0.43;;;;;19.80;98168.00;;;;5136530;28;20231;-75
2022/06/26 06:30:10;;;;;;;0.40;0.40;;;;;19.90;98167.00;;;;5118757;28;20602;-75
2022/06/26 06:32:37;;;;;;;0.50;0.50;;;;;19.90;98170.00;;;;5136603;27;20280;-75
2022/06/26 06:35:04;;;;;;;0.40;0.40;;;;;20.00;98160.00;;;;5136539;27;20520;-75
2022/06/26 06:37:31;;;;;;;0.70;0.70;;;;;20.10;98167.00;;;;5136463;27;20198;-75
2022/06/26 06:39:58;;;;;;;0.70;0.70;;;;;20.20;98178.00;;;;5136338;28;20209;-75
2022/06/26 06:42:25;;;;;;;0.40;0.40;;;;;20.20;98180.00;;;;5136171;27;20197;-74
2022/06/26 06:44:53;;;;;;;0.43;0.43;;;;;20.20;98173.00;;;;5136395;28;20251;-75
2022/06/26 06:47:19;;;;;;;0.50;0.50;;;;;20.30;98178.00;;;;5118441;28;20304;-75
2022/06/26 06:49:46;;;;;;;0.50;0.50;;;;;20.30;98181.00;;;;5136202;27;20529;-75
2022/06/26 06:52:13;;;;;;;1.03;1.03;;;;;20.40;98166.00;;;;5136184;28;20193;-75
2022/06/26 06:54:40;;;;;;;0.40;0.40;;;;;20.50;98174.00;;;;5136346;27;20250;-74
2022/06/26 06:57:07;;;;;;;0.30;0.30;;;;;20.50;98172.00;;;;5136144;28;20273;-76
2022/06/26 06:59:34;;;;;;;0.50;0.50;;;;;20.60;98175.00;;;;5136135;28;20200;-76
2022/06/26 07:02:02;;;;;;;0.60;0.60;;;;;20.60;98179.00;;;;5135996;27;20228;-75
2022/06/26 07:04:29;;;;;;;0.45;0.45;;;;;20.80;98192.00;;;;5136332;28;20221;-77
2022/06/26 07:06:55;;;;;;;0.82;0.80;;;;;20.90;98204.00;;;;5136110;28;20274;-75
2022/06/26 07:09:22;;;;;;;0.50;0.50;;;;;20.90;98204.00;;;;5135916;27;20584;-76
2022/06/26 07:11:51;;;;;;;0.30;0.30;;;;;20.90;98206.00;;;;5135958;28;20193;-75
2022/06/26 07:14:18;;;;;;;0.77;0.77;;;;;21.00;98205.00;;;;5136092;27;20197;-76
2022/06/26 07:16:49;;;;;;;0.40;0.40;;;;;21.20;98204.00;;;;5136159;28;20265;-74
2022/06/26 07:19:16;;;;;;;0.55;0.55;;;;;21.30;98204.00;;;;5135746;27;20222;-76
2022/06/26 07:21:44;;;;;;;0.47;0.47;;;;;21.20;98199.00;;;;5117941;28;20257;-76
2022/06/26 07:24:11;;;;;;;0.50;0.50;;;;;21.40;98201.00;;;;5117635;28;20694;-75
2022/06/26 07:26:38;;;;;;;0.80;0.80;;;;;21.50;98196.00;;;;5136135;27;20872;-75
2022/06/26 07:29:05;;;;;;;0.63;0.63;;;;;21.40;98191.00;;;;5135656;28;20244;-75
2022/06/26 07:31:34;;;;;;;0.40;0.40;;;;;21.60;98195.00;;;;5135662;27;20276;-75
2022/06/26 07:34:13;;;;;;;0.30;0.30;;;;;21.60;98196.00;;;;5135689;27;20235;-76
2022/06/26 07:36:41;;;;;;;0.50;0.50;;;;;21.70;98205.00;;;;5134876;27;20280;-76
2022/06/26 07:39:09;;;;;;;0.70;0.70;;;;;21.90;98204.00;;;;5135538;27;20193;-76
2022/06/26 07:41:36;;;;;;;0.50;0.50;;;;;21.90;98198.00;;;;5117378;28;20265;-75
2022/06/26 07:44:03;;;;;;;0.40;0.40;;;;;21.80;98200.00;;;;5135301;28;20225;-78
2022/06/26 07:46:30;;;;;;;0.50;0.50;;;;;21.90;98195.00;;;;5135321;27;20273;-76
2022/06/26 07:48:57;;;;;;;0.50;0.50;;;;;21.90;98197.00;;;;5117562;28;20197;-76
2022/06/26 07:51:23;;;;;;;0.40;0.40;;;;;21.90;98197.00;;;;5135218;28;20209;-76
2022/06/26 07:53:51;;;;;;;0.60;0.60;;;;;21.90;98199.00;;;;5135346;28;20530;-77
2022/06/26 07:56:20;;;;;;;0.47;0.47;;;;;21.80;98205.00;;;;5135278;27;20299;-77
2022/06/26 07:58:47;;;;;;;0.50;0.50;;;;;22.00;98204.00;;;;5135303;28;20215;-76
2022/06/26 08:01:14;;;;;;;0.40;0.40;;;;;22.00;98200.00;;;;5135262;27;20204;-75
2022/06/26 08:03:43;;;;;;;0.50;0.50;;;;;22.00;98201.00;;;;5116975;28;20293;-77
2022/06/26 08:06:10;;;;;;;0.45;0.45;;;;;21.90;98192.00;;;;5135022;28;20215;-77
2022/06/26 08:08:37;;;;;;;0.40;0.40;;;;;22.00;98191.00;;;;5134961;28;20303;-76
2022/06/26 08:11:05;;;;;;;0.50;0.50;;;;;22.30;98187.00;;;;5135010;28;20193;-75
2022/06/26 08:13:32;;;;;;;0.63;0.63;;;;;22.30;98190.00;;;;5135049;27;20190;-72
2022/06/26 08:16:01;;;;;;;0.68;0.68;;;;;22.40;98183.00;;;;5135521;27;20216;-74
2022/06/26 08:18:27;;;;;;;0.60;0.60;;;;;22.50;98178.00;;;;5135364;28;20276;-72
2022/06/26 08:20:54;;;;;;;0.40;0.40;;;;;22.50;98185.00;;;;5135203;28;20199;-73
2022/06/26 08:23:21;;;;;;;0.73;0.73;;;;;22.60;98187.00;;;;5135168;28;20217;-73
2022/06/26 08:25:48;;;;;;;0.40;0.40;;;;;22.80;98189.00;;;;5135006;27;20217;-73
2022/06/26 08:28:16;;;;;;;0.30;0.30;;;;;22.80;98182.00;;;;5134668;27;20189;-73
2022/06/26 08:30:42;;;;;;;0.40;0.40;;;;;22.80;98193.00;;;;5134874;28;20225;-71
2022/06/26 08:33:09;;;;;;;0.30;0.30;;;;;22.80;98189.00;;;;5134641;27;20270;-72
2022/06/26 08:35:36;;;;;;;0.50;0.50;;;;;22.80;98197.00;;;;5136201;28;20597;-72
2022/06/26 08:38:03;;;;;;;0.45;0.45;;;;;22.90;98192.00;;;;5135670;28;20197;-72
2022/06/26 08:40:31;;;;;;;0.32;0.32;;;;;22.80;98193.00;;;;5134742;28;20691;-72
2022/06/26 08:43:01;;;;;;;0.50;0.50;;;;;22.90;98203.00;;;;5134720;28;20231;-73
2022/06/26 08:45:29;;;;;;;0.40;0.40;;;;;22.90;98190.00;;;;5116540;28;20228;-72
2022/06/26 08:47:59;;;;;;;0.50;0.50;;;;;22.90;98189.00;;;;5135163;27;20189;-72
2022/06/26 08:50:29;;;;;;;0.40;0.40;;;;;23.20;98190.00;;;;5138140;27;20663;-72
2022/06/26 08:52:59;;;;;;;0.35;0.35;;;;;23.20;98192.00;;;;5138415;27;20251;-72
2022/06/26 08:55:27;;;;;;;0.30;0.30;;;;;23.20;98195.00;;;;5120767;27;20505;-72
2022/06/26 08:57:53;;;;;;;0.75;0.73;;;;;23.20;98191.00;;;;5146889;27;20220;-73
2022/06/26 09:00:20;;;;;;;0.50;0.50;;;;;23.20;98192.00;;;;5146769;28;20185;-73
2022/06/26 09:02:48;;;;;;;0.40;0.40;;;;;23.40;98199.00;;;;5149774;28;20221;-72
2022/06/26 09:05:15;;;;;;;0.47;0.47;;;;;23.50;98192.00;;;;5150110;27;20195;-74
2022/06/26 09:07:46;;;;;;;0.70;0.70;;;;;23.60;98200.00;;;;5147532;28;20198;-72
2022/06/26 09:10:16;;;;;;;0.30;0.30;;;;;23.80;98203.00;;;;5137985;28;20208;-72
2022/06/26 09:12:43;;;;;;;0.55;0.55;;;;;23.90;98192.00;;;;5119766;28;20263;-72
2022/06/26 09:15:17;;;;;;;0.60;0.60;;;;;24.00;98197.00;;;;5138075;27;20194;-73
2022/06/26 09:17:59;;;;;;;0.30;0.30;;;;;24.30;98195.00;;;;5120157;28;20247;-73
2022/06/26 09:20:26;;;;;;;0.30;0.30;;;;;24.40;98205.00;;;;5138331;27;20193;-72
2022/06/26 09:22:54;;;;;;;0.20;0.20;;;;;24.40;98208.00;;;;5138090;28;20759;-72
2022/06/26 09:25:21;;;;;;;0.50;0.50;;;;;24.30;98203.00;;;;5138364;27;20201;-75
2022/06/26 09:27:48;;;;;;;0.50;0.50;;;;;24.40;98211.00;;;;5138320;28;20217;-75
2022/06/26 09:30:15;;;;;;;0.60;0.60;;;;;24.50;98210.00;;;;5138291;28;20190;-75
2022/06/26 09:32:42;;;;;;;0.40;0.40;;;;;24.60;98206.00;;;;5138089;28;20230;-75
2022/06/26 09:35:09;;;;;;;0.40;0.40;;;;;24.80;98206.00;;;;5120098;28;20213;-75
2022/06/26 09:37:38;;;;;;;0.70;0.70;;;;;24.90;98212.00;;;;5137998;27;20225;-73
2022/06/26 09:40:06;;;;;;;0.80;0.80;;;;;25.00;98199.00;;;;5138237;28;20212;-72
2022/06/26 09:42:34;;;;;;;0.55;0.55;;;;;25.00;98207.00;;;;5137795;28;20706;-74
2022/06/26 09:45:01;;;;;;;2.17;0.80;;;;;25.50;98206.00;;;;5120431;28;20627;-73
2022/06/26 09:47:34;;;;;;;0.40;0.40;;;;;25.60;98211.00;;;;5137849;27;20213;-73
2022/06/26 09:50:06;;;;;;;0.50;0.50;;;;;25.80;98203.00;;;;5138123;28;20217;-74
2022/06/26 09:52:34;;;;;;;0.40;0.40;;;;;25.90;98201.00;;;;5138012;27;20266;-73
2022/06/26 09:55:05;;;;;;;0.50;0.50;;;;;25.80;98209.00;;;;5138074;27;20212;-74
2022/06/26 09:57:32;;;;;;;0.40;0.40;;;;;26.00;98203.00;;;;5137993;28;20191;-73
2022/06/26 09:59:59;;;;;;;0.50;0.50;;;;;26.10;98195.00;;;;5137122;27;20501;-72
2022/06/26 10:08:03;;;;;;;0.60;0.60;;;;;26.00;98206.00;;;;5138053;28;20209;-75
2022/06/26 10:10:32;;;;;;;0.50;0.50;;;;;26.10;98204.00;;;;5137713;27;20296;-75
2022/06/26 10:13:02;;;;;;;0.40;0.40;;;;;26.10;98202.00;;;;5137579;27;20197;-75
2022/06/26 10:15:34;;;;;;;0.60;0.60;;;;;26.20;98198.00;;;;5137871;27;20304;-75
2022/06/26 10:18:25;;;;;;;0.50;0.50;;;;;26.40;98203.00;;;;5119770;28;20194;-75
2022/06/26 10:20:55;;;;;;;0.50;0.50;;;;;26.30;98208.00;;;;5126200;27;20259;-75
2022/06/26 10:23:32;;;;;;;0.52;0.52;;;;;26.30;98200.00;;;;5138036;27;20304;-75
2022/06/26 10:26:10;;;;;;;0.57;0.57;;;;;26.30;98199.00;;;;5137982;27;20205;-74
2022/06/26 10:28:37;;;;;;;0.43;0.43;;;;;26.50;98201.00;;;;5137868;28;20293;-75
2022/06/26 10:31:07;;;;;;;0.60;0.60;;;;;26.80;98191.00;;;;5137031;28;20196;-73
2022/06/26 10:33:34;;;;;;;0.60;0.60;;;;;27.30;98187.00;;;;5137511;28;20655;-75
2022/06/26 10:36:01;;;;;;;0.73;0.73;;;;;27.80;98183.00;;;;5137315;28;20201;-75
2022/06/26 10:38:29;;;;;;;0.40;0.40;;;;;28.10;98175.00;;;;5137684;27;20228;-73
2022/06/26 10:44:01;;;;;;;0.60;0.60;;;;;28.60;98176.00;;;;5140944;28;20222;-75
2022/06/26 10:46:36;;;;;;;1.60;1.50;;;;;28.80;98183.00;;;;5139639;28;20189;-76
2022/06/26 10:49:07;;;;;;;0.60;0.60;;;;;29.30;98183.00;;;;5140623;28;20217;-76
2022/06/26 10:51:34;;;;;;;0.43;0.43;;;;;29.30;98184.00;;;;5141181;27;20635;-76
2022/06/26 10:54:02;;;;;;;0.57;0.57;;;;;29.20;98188.00;;;;5138881;28;20192;-77
2022/06/26 10:56:31;;;;;;;0.38;0.38;;;;;28.90;98182.00;;;;5138926;27;20198;-75
2022/06/26 10:59:01;;;;;;;0.50;0.50;;;;;28.50;98186.00;;;;5136506;27;20185;-76
2022/06/26 11:01:28;;;;;;;0.40;0.40;;;;;28.60;98189.00;;;;5136148;27;20277;-75
2022/06/26 11:03:55;;;;;;;0.50;0.50;;;;;28.30;98187.00;;;;5136103;27;20300;-76
2022/06/26 11:06:27;;;;;;;0.50;0.50;;;;;28.30;98197.00;;;;5136187;27;20291;-75
2022/06/26 11:08:54;;;;;;;0.60;0.60;;;;;28.30;98187.00;;;;5136043;27;20193;-75
2022/06/26 11:11:30;;;;;;;0.50;0.50;;;;;28.40;98187.00;;;;5134834;27;20304;-75
2022/06/26 11:14:01;;;;;;;0.35;0.35;;;;;28.30;98185.00;;;;5136006;28;20653;-75
2022/06/26 11:16:30;;;;;;;0.70;0.70;;;;;28.20;98180.00;;;;5136075;28;20248;-75
2022/06/26 11:18:57;;;;;;;0.85;0.85;;;;;28.20;98175.00;;;;5135988;27;20288;-77
2022/06/26 11:21:24;;;;;;;0.50;0.50;;;;;28.40;98168.00;;;;5136146;28;20201;-76
2022/06/26 11:23:51;;;;;;;0.80;0.80;;;;;28.40;98170.00;;;;5135833;27;20209;-75
2022/06/26 11:26:20;;;;;;;0.52;0.52;;;;;28.40;98170.00;;;;5117691;27;20533;-76
2022/06/26 11:28:55;;;;;;;0.60;0.60;;;;;28.50;98164.00;;;;5135790;28;20226;-76
2022/06/26 11:31:25;;;;;;;0.73;0.73;;;;;28.30;98164.00;;;;5135734;28;20203;-75
2022/06/26 11:33:55;;;;;;;0.50;0.50;;;;;28.50;98162.00;;;;5135628;27;20683;-75
2022/06/26 11:36:22;;;;;;;0.93;0.90;;;;;28.60;98163.00;;;;5135593;27;20609;-75
2022/06/26 11:38:52;;;;;;;0.55;0.55;;;;;28.50;98163.00;;;;5117662;28;20236;-75
2022/06/26 11:41:20;;;;;;;0.52;0.52;;;;;28.50;98165.00;;;;5135588;28;20254;-75
2022/06/26 11:43:50;;;;;;;0.80;0.80;;;;;28.80;98166.00;;;;5135509;27;20299;-75
2022/06/26 11:46:17;;;;;;;0.52;0.52;;;;;28.80;98161.00;;;;5135426;27;20611;-75
2022/06/26 11:48:46;;;;;;;0.60;0.60;;;;;28.90;98167.00;;;;5135367;28;20185;-74
2022/06/26 11:51:16;;;;;;;0.88;0.88;;;;;29.10;98163.00;;;;5135389;28;20228;-75
2022/06/26 11:53:45;;;;;;;0.70;0.70;;;;;29.50;98167.00;;;;5135322;28;20221;-75
2022/06/26 11:56:19;;;;;;;0.73;0.73;;;;;29.50;98164.00;;;;5135365;27;20217;-75
2022/06/26 11:58:48;;;;;;;0.45;0.45;;;;;29.50;98174.00;;;;5135572;28;20276;-75
2022/06/26 12:01:18;;;;;;;0.50;0.50;;;;;29.30;98156.00;;;;5135249;27;20213;-75
2022/06/26 12:03:52;;;;;;;0.70;0.70;;;;;29.40;98146.00;;;;5117152;28;20268;-75
2022/06/26 12:06:31;;;;;;;0.50;0.50;;;;;29.70;98150.00;;;;5117174;28;20197;-76
2022/06/26 12:08:58;;;;;;;0.47;0.47;;;;;29.80;98145.00;;;;5135299;27;20193;-76
2022/06/26 12:11:26;;;;;;;0.60;0.60;;;;;29.70;98151.00;;;;5135230;27;20193;-76
2022/06/26 12:13:54;;;;;;;0.80;0.80;;;;;29.90;98150.00;;;;5135277;27;20249;-76
2022/06/26 12:16:23;;;;;;;0.60;0.60;;;;;30.10;98143.00;;;;5135113;28;20204;-75
2022/06/26 12:18:50;;;;;;;0.60;0.60;;;;;30.30;98128.00;;;;5134934;28;20209;-75
2022/06/26 12:21:19;;;;;;;0.40;0.40;;;;;30.20;98153.00;;;;5117200;28;20296;-75
2022/06/26 12:23:47;;;;;;;0.60;0.60;;;;;30.00;98142.00;;;;5134626;27;20225;-75
2022/06/26 12:26:17;;;;;;;0.60;0.60;;;;;30.30;98131.00;;;;5139240;28;20261;-75
2022/06/26 12:28:47;;;;;;;0.52;0.52;;;;;30.70;98130.00;;;;5137161;27;20223;-74
2022/06/26 12:31:16;;;;;;;0.60;0.60;;;;;30.90;98134.00;;;;5119163;28;20197;-76
2022/06/26 12:33:44;;;;;;;0.50;0.50;;;;;31.00;98138.00;;;;5116983;28;20549;-77